createdAt,value
2019-03-18T00:01:49.149Z,99592.38
2019-03-18T00:04:52.682Z,99593.34
2019-03-18T00:07:56.172Z,99596.34
2019-03-18T00:11:00.693Z,99603.09
2019-03-18T00:14:05.219Z,99596.94
2019-03-18T00:17:09.752Z,99593.47
2019-03-18T00:20:15.322Z,99592.14
2019-03-18T00:23:18.792Z,99588.64
2019-03-18T00:26:23.321Z,99595.38
2019-03-18T00:29:27.849Z,99603.33
2019-03-18T00:32:31.356Z,99611.28
2019-03-18T00:35:34.865Z,99619.85
2019-03-18T00:38:39.364Z,99626.95
2019-03-18T00:41:43.900Z,99629.13
2019-03-18T00:44:47.393Z,99629.13
2019-03-18T00:47:50.948Z,99644.28
2019-03-18T00:50:54.385Z,99633.80
2019-03-18T00:53:57.900Z,99637.31
2019-03-18T00:57:01.404Z,99647.91
2019-03-18T01:00:05.676Z,99644.52
2019-03-18T01:03:09.297Z,99635.60
2019-03-18T01:06:12.767Z,99634.05
2019-03-18T01:09:17.252Z,99637.20
2019-03-18T01:12:22.788Z,99627.92
2019-03-18T01:15:28.858Z,99622.73
2019-03-18T01:18:32.452Z,99626.21
2019-03-18T01:21:37.081Z,99623.56
2019-03-18T01:24:40.586Z,99624.53
2019-03-18T01:27:44.187Z,99624.53
2019-03-18T01:30:47.688Z,99632.48
2019-03-18T01:33:51.208Z,99628.51
2019-03-18T01:36:54.699Z,99626.95
2019-03-18T01:39:58.181Z,99627.42
2019-03-18T01:43:01.794Z,99625.13
2019-03-18T01:46:05.223Z,99629.59
2019-03-18T01:49:08.677Z,99620.80
2019-03-18T01:52:12.222Z,99628.39
2019-03-18T01:55:15.717Z,99629.83
2019-03-18T01:58:19.198Z,99631.62
2019-03-18T02:01:22.730Z,99640.90
2019-03-18T02:04:26.197Z,99644.88
2019-03-18T02:07:29.720Z,99640.08
2019-03-18T02:10:34.285Z,99639.22
2019-03-18T02:13:37.754Z,99622.98
2019-03-18T02:16:41.226Z,99645.49
2019-03-18T02:19:44.720Z,99675.22
2019-03-18T02:22:48.161Z,99668.95
2019-03-18T02:25:51.639Z,99664.27
2019-03-18T02:28:55.247Z,99662.33
2019-03-18T02:31:59.809Z,99669.57
2019-03-18T02:35:03.249Z,99670.89
2019-03-18T02:38:06.808Z,99674.87
2019-03-18T02:41:10.420Z,99680.75
2019-03-18T02:44:14.064Z,99687.38
2019-03-18T02:47:17.600Z,99700.27
2019-03-18T02:50:22.223Z,99702.80
2019-03-18T02:53:26.734Z,99702.05
2019-03-18T02:56:30.238Z,99711.83
2019-03-18T02:59:33.742Z,99718.45
2019-03-18T03:02:37.236Z,99729.63
2019-03-18T03:05:40.801Z,99728.42
2019-03-18T03:08:44.235Z,99710.73
2019-03-18T03:11:47.680Z,99709.88
2019-03-18T03:14:51.227Z,99722.27
2019-03-18T03:17:54.749Z,99728.53
2019-03-18T03:20:58.235Z,99724.09
2019-03-18T03:24:01.743Z,99727.20
2019-03-18T03:27:05.297Z,99741.42
2019-03-18T03:30:09.083Z,99761.28
2019-03-18T03:33:12.559Z,99752.02
2019-03-18T03:36:16.070Z,99762.61
2019-03-18T03:39:19.672Z,99770.56
2019-03-18T03:42:23.163Z,99762.61
2019-03-18T03:45:26.700Z,99767.91
2019-03-18T03:48:31.266Z,99766.81
2019-03-18T03:51:34.911Z,99759.84
2019-03-18T03:54:38.393Z,99772.69
2019-03-18T03:57:41.903Z,99773.08
2019-03-18T04:00:46.395Z,99778.84
2019-03-18T04:03:49.845Z,99785.93
2019-03-18T04:06:53.425Z,99795.31
2019-03-18T04:09:56.914Z,99777.63
2019-03-18T04:13:00.440Z,99778.59
2019-03-18T04:16:04.933Z,99792.89
2019-03-18T04:19:08.435Z,99798.11
2019-03-18T04:22:15.137Z,99811.42
2019-03-18T04:25:18.556Z,99806.95
2019-03-18T04:28:22.052Z,99807.45
2019-03-18T04:31:28.603Z,99821.16
2019-03-18T04:34:32.165Z,99824.78
2019-03-18T04:37:35.893Z,99822.13
2019-03-18T04:40:39.492Z,99814.30
2019-03-18T04:43:42.936Z,99821.73
2019-03-18T04:46:46.451Z,99824.03
2019-03-18T04:49:49.967Z,99827.64
2019-03-18T04:52:53.496Z,99826.68
2019-03-18T04:55:56.990Z,99829.33
2019-03-18T04:59:05.779Z,99838.24
2019-03-18T05:02:09.326Z,99844.50
2019-03-18T05:05:12.843Z,99854.02
2019-03-18T05:08:16.339Z,99859.42
2019-03-18T05:11:19.830Z,99865.69
2019-03-18T05:14:23.306Z,99872.67
2019-03-18T05:17:27.178Z,99867.12
2019-03-18T05:20:30.732Z,99872.77
2019-03-18T05:23:35.301Z,99879.86
2019-03-18T05:26:38.795Z,99879.86
2019-03-18T05:29:42.233Z,99882.62
2019-03-18T05:32:45.781Z,99880.83
2019-03-18T05:35:49.270Z,99875.53
2019-03-18T05:38:52.790Z,99886.59
2019-03-18T05:41:56.283Z,99878.18
2019-03-18T05:44:59.799Z,99868.16
2019-03-18T05:48:04.363Z,99868.66
2019-03-18T05:51:07.804Z,99867.81
2019-03-18T05:54:11.297Z,99859.51
2019-03-18T05:57:14.795Z,99851.56
2019-03-18T06:00:18.304Z,99863.48
2019-03-18T06:03:21.817Z,99876.72
2019-03-18T06:06:25.335Z,99873.10
2019-03-18T06:09:29.875Z,99860.44
2019-03-18T06:12:34.536Z,99863.48
2019-03-18T06:15:39.066Z,99867.06
2019-03-18T06:18:43.626Z,99872.00
2019-03-18T06:21:47.069Z,99888.24
2019-03-18T06:24:50.599Z,99885.84
2019-03-18T06:27:56.347Z,99882.23
2019-03-18T06:30:59.858Z,99890.28
2019-03-18T06:34:04.385Z,99880.55
2019-03-18T06:37:07.902Z,99879.80
2019-03-18T06:40:11.434Z,99878.84
2019-03-18T06:43:15.039Z,99873.54
2019-03-18T06:46:18.525Z,99876.30
2019-03-18T06:49:22.121Z,99872.61
2019-03-18T06:52:25.589Z,99868.24
2019-03-18T06:55:29.123Z,99873.19
2019-03-18T06:58:32.602Z,99879.05
2019-03-18T07:01:36.061Z,99876.41
2019-03-18T07:04:39.622Z,99877.16
2019-03-18T07:07:43.109Z,99877.52
2019-03-18T07:10:46.582Z,99887.17
2019-03-18T07:13:52.177Z,99885.84
2019-03-18T07:16:55.653Z,99894.94
2019-03-18T07:19:59.226Z,99890.61
2019-03-18T07:23:02.644Z,99899.41
2019-03-18T07:26:06.143Z,99902.87
2019-03-18T07:29:10.678Z,99896.87
2019-03-18T07:32:15.208Z,99905.77
2019-03-18T07:35:18.702Z,99905.77
2019-03-18T07:38:22.222Z,99905.63
2019-03-18T07:41:25.666Z,99896.87
2019-03-18T07:44:30.233Z,99919.02
2019-03-18T07:47:33.838Z,99924.87
2019-03-18T07:50:37.443Z,99921.48
2019-03-18T07:53:41.038Z,99918.37
2019-03-18T07:56:44.674Z,99919.33
2019-03-18T07:59:49.215Z,99928.60
2019-03-18T08:02:54.803Z,99931.14
2019-03-18T08:05:58.276Z,99931.86
2019-03-18T08:09:04.081Z,99936.22
2019-03-18T08:12:08.707Z,99934.55
2019-03-18T08:15:14.275Z,99939.95
2019-03-18T08:18:17.759Z,99942.38
2019-03-18T08:21:22.269Z,99934.08
2019-03-18T08:24:25.789Z,99940.23
2019-03-18T08:27:29.368Z,99933.50
2019-03-18T08:30:32.893Z,99942.52
2019-03-18T08:33:36.353Z,99944.81
2019-03-18T08:36:39.794Z,99946.17
2019-03-18T08:39:43.317Z,99938.73
2019-03-18T08:42:46.769Z,99944.59
2019-03-18T08:45:50.198Z,99943.06
2019-03-18T08:48:56.057Z,99938.87
2019-03-18T08:51:58.904Z,99933.93
2019-03-18T08:55:02.406Z,99943.09
2019-03-18T08:58:05.900Z,99932.75
2019-03-18T09:01:11.461Z,99936.72
2019-03-18T09:04:15.015Z,99942.98
2019-03-18T09:07:18.672Z,99953.47
2019-03-18T09:10:24.237Z,99949.92
2019-03-18T09:13:27.710Z,99942.70
2019-03-18T09:16:32.359Z,99956.77
2019-03-18T09:19:35.824Z,99950.42
2019-03-18T09:22:42.228Z,99965.71
2019-03-18T09:25:49.640Z,99964.75
2019-03-18T09:29:01.989Z,99969.47
2019-03-18T09:32:05.511Z,99981.75
2019-03-18T09:35:09.021Z,99990.55
2019-03-18T09:38:12.457Z,99989.15
2019-03-18T09:41:16.023Z,99997.45
2019-03-18T09:44:19.538Z,100014.31
2019-03-18T09:47:23.052Z,100018.64
2019-03-18T09:50:26.515Z,100030.34
2019-03-18T09:53:30.028Z,100031.20
2019-03-18T09:56:34.635Z,100032.74
2019-03-18T09:59:38.249Z,100035.18
2019-03-18T10:02:41.694Z,100046.03
2019-03-18T10:05:45.261Z,100048.31
2019-03-18T10:08:48.813Z,100052.55
2019-03-18T10:11:53.415Z,100047.81
2019-03-18T10:14:56.890Z,100054.44
2019-03-18T10:18:01.324Z,100058.31
2019-03-18T10:21:04.760Z,100070.23
2019-03-18T10:24:08.216Z,100071.55
2019-03-18T10:27:11.705Z,100068.69
2019-03-18T10:30:15.227Z,100070.98
2019-03-18T10:33:18.701Z,100065.89
2019-03-18T10:36:22.137Z,100073.42
2019-03-18T10:39:25.616Z,100072.66
2019-03-18T10:42:29.107Z,100078.93
2019-03-18T10:45:32.616Z,100080.83
2019-03-18T10:48:36.176Z,100082.05
2019-03-18T10:51:39.717Z,100081.94
2019-03-18T10:54:43.368Z,100086.88
2019-03-18T10:57:46.839Z,100084.02
2019-03-18T11:00:50.269Z,100087.23
2019-03-18T11:03:53.820Z,100089.78
2019-03-18T11:06:57.264Z,100085.91
2019-03-18T11:10:00.874Z,100094.33
2019-03-18T11:13:04.339Z,100094.82
2019-03-18T11:16:07.826Z,100102.77
2019-03-18T11:19:11.323Z,100100.84
2019-03-18T11:22:14.828Z,100105.42
2019-03-18T11:25:18.332Z,100103.70
2019-03-18T11:28:21.844Z,100105.02
2019-03-18T11:31:25.337Z,100099.73
2019-03-18T11:34:29.330Z,100106.14
2019-03-18T11:37:32.949Z,100102.77
2019-03-18T11:40:37.478Z,100108.79
2019-03-18T11:43:40.987Z,100099.80
2019-03-18T11:46:44.495Z,100095.83
2019-03-18T11:49:48.014Z,100092.69
2019-03-18T11:52:51.495Z,100100.06
2019-03-18T11:55:54.982Z,100096.80
2019-03-18T11:58:58.463Z,100101.74
2019-03-18T12:02:02.011Z,100103.07
2019-03-18T12:05:07.818Z,100102.11
2019-03-18T12:08:11.251Z,100103.33
2019-03-18T12:11:15.834Z,100099.95
2019-03-18T12:14:19.545Z,100099.84
2019-03-18T12:17:23.166Z,100101.53
2019-03-18T12:20:26.704Z,100098.88
2019-03-18T12:23:31.206Z,100098.52
2019-03-18T12:26:34.714Z,100091.30
2019-03-18T12:29:38.211Z,100100.00
2019-03-18T12:32:41.723Z,100099.24
2019-03-18T12:35:45.219Z,100107.95
2019-03-18T12:38:48.698Z,100113.25
2019-03-18T12:41:52.209Z,100135.02
2019-03-18T12:44:55.691Z,100125.53
2019-03-18T12:47:59.220Z,100128.08
2019-03-18T12:51:02.719Z,100124.67
2019-03-18T12:54:08.241Z,100123.23
2019-03-18T12:57:11.754Z,100114.82
2019-03-18T13:00:18.387Z,100111.50
2019-03-18T13:03:22.036Z,100114.30
2019-03-18T13:06:25.540Z,100105.37
2019-03-18T13:09:29.038Z,100098.90
2019-03-18T13:12:32.534Z,100094.34
2019-03-18T13:15:36.062Z,100094.59
2019-03-18T13:18:40.596Z,100096.57
2019-03-18T13:21:44.058Z,100091.98
2019-03-18T13:24:47.558Z,100097.07
2019-03-18T13:27:51.088Z,100106.13
2019-03-18T13:30:54.557Z,100111.58
2019-03-18T13:33:58.086Z,100118.67
2019-03-18T13:37:01.589Z,100133.54
2019-03-18T13:40:06.422Z,100144.72
2019-03-18T13:43:10.006Z,100163.38
2019-03-18T13:46:13.536Z,100176.17
2019-03-18T13:49:17.004Z,100185.45
2019-03-18T13:52:20.505Z,100167.47
2019-03-18T13:55:24.001Z,100133.75
2019-03-18T13:58:27.510Z,100129.39
2019-03-18T14:01:31.080Z,100116.88
2019-03-18T14:04:34.729Z,100117.99
2019-03-18T14:07:38.229Z,100127.98
2019-03-18T14:10:41.725Z,100143.68
2019-03-18T14:13:45.219Z,100142.14
2019-03-18T14:16:48.764Z,100138.34
2019-03-18T14:19:52.209Z,100133.22
2019-03-18T14:22:56.736Z,100139.20
2019-03-18T14:26:00.243Z,100140.30
2019-03-18T14:29:03.743Z,100140.41
2019-03-18T14:32:08.321Z,100150.45
2019-03-18T14:35:11.780Z,100153.45
2019-03-18T14:38:15.312Z,100154.28
2019-03-18T14:41:18.765Z,100157.80
2019-03-18T14:44:22.265Z,100168.41
2019-03-18T14:47:25.783Z,100163.74
2019-03-18T14:50:29.274Z,100178.80
2019-03-18T14:53:32.782Z,100176.14
2019-03-18T14:56:36.336Z,100179.55
2019-03-18T14:59:39.771Z,100179.69
2019-03-18T15:02:43.283Z,100180.05
2019-03-18T15:05:46.787Z,100179.72
2019-03-18T15:08:51.299Z,100179.00
2019-03-18T15:11:54.849Z,100181.44
2019-03-18T15:14:59.339Z,100182.66
2019-03-18T15:18:02.853Z,100190.65
2019-03-18T15:21:06.337Z,100190.79
2019-03-18T15:24:16.925Z,100198.92
2019-03-18T15:27:15.228Z,100200.86
2019-03-18T15:30:19.014Z,100199.56
2019-03-18T15:33:23.627Z,100201.49
2019-03-18T15:36:27.112Z,100204.20
2019-03-18T15:39:30.722Z,100217.03
2019-03-18T15:42:35.348Z,100213.94
2019-03-18T15:45:38.908Z,100221.68
2019-03-18T15:48:42.369Z,100218.53
2019-03-18T15:51:45.931Z,100213.58
2019-03-18T15:54:54.064Z,100218.05
2019-03-18T15:57:54.951Z,100213.48
2019-03-18T16:00:58.399Z,100216.03
2019-03-18T16:04:02.762Z,100208.70
2019-03-18T16:07:06.237Z,100211.36
2019-03-18T16:10:10.304Z,100221.13
2019-03-18T16:13:13.880Z,100224.75
2019-03-18T16:16:17.351Z,100221.59
2019-03-18T16:19:20.852Z,100226.55
2019-03-18T16:22:25.382Z,100239.07
2019-03-18T16:25:28.899Z,100249.80
2019-03-18T16:28:33.442Z,100255.84
2019-03-18T16:31:37.931Z,100261.72
2019-03-18T16:34:41.447Z,100261.83
2019-03-18T16:37:45.036Z,100264.13
2019-03-18T16:40:48.749Z,100270.48
2019-03-18T16:43:52.340Z,100268.80
2019-03-18T16:46:55.851Z,100268.05
2019-03-18T16:50:00.458Z,100260.66
2019-03-18T16:53:03.867Z,100264.28
2019-03-18T16:56:07.373Z,100262.59
2019-03-18T16:59:13.344Z,100275.13
2019-03-18T17:02:16.965Z,100291.66
2019-03-18T17:05:21.550Z,100296.68
2019-03-18T17:08:25.061Z,100297.54
2019-03-18T17:11:28.555Z,100296.79
2019-03-18T17:14:35.646Z,100299.41
2019-03-18T17:17:39.256Z,100307.47
2019-03-18T17:20:42.750Z,100304.82
2019-03-18T17:23:46.237Z,100310.73
2019-03-18T17:26:49.752Z,100309.05
2019-03-18T17:29:54.280Z,100313.81
2019-03-18T17:32:57.782Z,100325.03
2019-03-18T17:36:03.680Z,100324.75
2019-03-18T17:39:08.372Z,100332.34
2019-03-18T17:42:11.977Z,100334.74
2019-03-18T17:45:15.492Z,100335.71
2019-03-18T17:48:20.075Z,100344.34
2019-03-18T17:51:23.685Z,100352.77
2019-03-18T17:54:27.198Z,100354.80
2019-03-18T17:57:30.784Z,100363.83
2019-03-18T18:00:37.880Z,100371.19
2019-03-18T18:03:41.401Z,100366.59
2019-03-18T18:06:44.877Z,100383.44
2019-03-18T18:09:48.510Z,100395.88
2019-03-18T18:12:52.122Z,100399.59
2019-03-18T18:15:55.596Z,100398.37
2019-03-18T18:18:59.132Z,100405.56
2019-03-18T18:22:02.683Z,100405.10
2019-03-18T18:25:07.524Z,100415.42
2019-03-18T18:28:11.032Z,100424.80
2019-03-18T18:31:14.524Z,100416.98
2019-03-18T18:34:18.039Z,100417.91
2019-03-18T18:37:21.626Z,100423.81
2019-03-18T18:40:25.347Z,100434.02
2019-03-18T18:43:28.946Z,100429.28
2019-03-18T18:46:32.433Z,100437.34
2019-03-18T18:49:36.056Z,100445.77
2019-03-18T18:52:39.716Z,100448.61
2019-03-18T18:55:43.351Z,100454.78
2019-03-18T18:58:46.888Z,100459.22
2019-03-18T19:01:50.347Z,100465.59
2019-03-18T19:04:53.932Z,100469.10
2019-03-18T19:07:57.812Z,100469.30
2019-03-18T19:11:01.514Z,100467.61
2019-03-18T19:14:06.096Z,100478.22
2019-03-18T19:17:09.706Z,100480.97
2019-03-18T19:20:13.220Z,100478.41
2019-03-18T19:23:16.698Z,100493.46
2019-03-18T19:26:21.321Z,100492.59
2019-03-18T19:29:24.936Z,100505.48
2019-03-18T19:32:28.427Z,100504.16
2019-03-18T19:35:31.964Z,100502.47
2019-03-18T19:38:35.460Z,100509.66
2019-03-18T19:41:40.203Z,100515.16
2019-03-18T19:44:43.895Z,100513.55
2019-03-18T19:47:47.477Z,100521.03
2019-03-18T19:50:52.107Z,100525.97
2019-03-18T19:53:56.647Z,100531.64
2019-03-18T19:57:00.126Z,100535.71
2019-03-18T20:00:04.209Z,100539.59
2019-03-18T20:03:08.772Z,100539.09
2019-03-18T20:06:12.384Z,100544.12
2019-03-18T20:09:16.115Z,100545.45
2019-03-18T20:12:19.812Z,100547.55
2019-03-18T20:15:23.408Z,100557.78
2019-03-18T20:18:27.913Z,100558.87
2019-03-18T20:21:31.445Z,100567.60
2019-03-18T20:24:34.944Z,100570.25
2019-03-18T20:27:38.431Z,100573.27
2019-03-18T20:30:41.933Z,100576.69
2019-03-18T20:33:46.464Z,100576.22
2019-03-18T20:36:50.971Z,100581.03
2019-03-18T20:39:54.583Z,100585.77
2019-03-18T20:42:58.278Z,100585.77
2019-03-18T20:46:02.918Z,100589.75
2019-03-18T20:49:06.470Z,100598.94
2019-03-18T20:52:16.834Z,100587.47
2019-03-18T20:55:17.309Z,100591.81
2019-03-18T20:58:20.794Z,100590.88
2019-03-18T21:01:24.323Z,100593.53
2019-03-18T21:04:27.823Z,100596.55
2019-03-18T21:07:31.307Z,100599.20
2019-03-18T21:10:34.815Z,100594.27
2019-03-18T21:13:38.274Z,100601.76
2019-03-18T21:16:41.837Z,100614.52
2019-03-18T21:19:47.386Z,100611.50
2019-03-18T21:22:51.975Z,100609.72
2019-03-18T21:25:55.634Z,100612.09
2019-03-18T21:28:59.102Z,100618.91
2019-03-18T21:32:02.589Z,100617.77
2019-03-18T21:35:06.391Z,100623.44
2019-03-18T21:38:09.992Z,100628.84
2019-03-18T21:41:13.518Z,100624.86
2019-03-18T21:44:17.100Z,100630.76
2019-03-18T21:47:20.751Z,100639.55
2019-03-18T21:50:24.215Z,100632.64
2019-03-18T21:53:27.802Z,100643.61
2019-03-18T21:56:32.440Z,100642.29
2019-03-18T21:59:35.962Z,100649.41
2019-03-18T22:02:40.467Z,100651.66
2019-03-18T22:05:45.045Z,100657.47
2019-03-18T22:08:48.642Z,100658.89
2019-03-18T22:11:52.221Z,100655.47
2019-03-18T22:14:55.712Z,100656.79
2019-03-18T22:18:00.217Z,100663.05
2019-03-18T22:21:03.774Z,100657.75
2019-03-18T22:24:09.268Z,100661.73
2019-03-18T22:27:14.809Z,100665.80
2019-03-18T22:30:18.343Z,100673.84
2019-03-18T22:33:21.817Z,100682.76
2019-03-18T22:36:28.405Z,100688.16
2019-03-18T22:39:31.898Z,100686.92
2019-03-18T22:42:35.509Z,100691.77
2019-03-18T22:45:39.115Z,100687.48
2019-03-18T22:48:42.610Z,100692.69
2019-03-18T22:51:46.166Z,100692.78
2019-03-18T22:54:55.942Z,100691.09
2019-03-18T22:57:55.157Z,100700.83
2019-03-18T23:01:10.090Z,100698.30
2019-03-18T23:04:14.639Z,100714.77
2019-03-18T23:07:18.154Z,100703.79
2019-03-18T23:10:21.649Z,100713.06
2019-03-18T23:13:25.241Z,100708.32
2019-03-18T23:16:28.862Z,100713.62
2019-03-18T23:19:32.381Z,100712.39
2019-03-18T23:22:35.894Z,100719.11
2019-03-18T23:25:39.367Z,100720.92
2019-03-18T23:28:42.846Z,100723.09
2019-03-18T23:31:46.385Z,100725.45
2019-03-18T23:34:49.864Z,100722.80
2019-03-18T23:37:53.367Z,100736.92
2019-03-18T23:40:57.880Z,100733.87
2019-03-18T23:44:01.489Z,100742.41
2019-03-18T23:47:05.107Z,100735.87
2019-03-18T23:50:08.883Z,100740.68
2019-03-18T23:53:12.509Z,100746.94
2019-03-18T23:56:16.004Z,100749.21
2019-03-18T23:59:19.502Z,100746.56
